createdAt,value
2023-03-20T00:02:11.784Z,15.74
2023-03-20T00:04:40.234Z,15.73
2023-03-20T00:07:12.039Z,15.72
2023-03-20T00:09:40.691Z,15.68
2023-03-20T00:12:11.479Z,15.65
2023-03-20T00:14:39.562Z,15.59
2023-03-20T00:17:12.060Z,15.55
2023-03-20T00:19:39.933Z,15.50
2023-03-20T00:22:09.616Z,15.43
2023-03-20T00:24:37.440Z,15.39
2023-03-20T00:27:05.985Z,15.34
2023-03-20T00:29:34.591Z,15.28
2023-03-20T00:32:02.854Z,15.20
2023-03-20T00:34:32.652Z,15.14
2023-03-20T00:37:01.045Z,15.08
2023-03-20T00:39:37.662Z,15.06
2023-03-20T00:42:15.382Z,15.01
2023-03-20T00:44:52.564Z,14.93
2023-03-20T00:47:27.294Z,14.89
2023-03-20T00:49:58.412Z,14.82
2023-03-20T00:52:26.808Z,14.80
2023-03-20T00:54:55.463Z,14.77
2023-03-20T00:57:30.341Z,14.77
2023-03-20T01:00:02.157Z,14.78
2023-03-20T01:02:32.140Z,14.81
2023-03-20T01:05:05.019Z,14.83
2023-03-20T01:07:33.841Z,14.86
2023-03-20T01:10:04.164Z,14.92
2023-03-20T01:12:32.181Z,14.98
2023-03-20T01:15:01.547Z,15.03
2023-03-20T01:17:30.445Z,15.06
2023-03-20T01:19:58.835Z,15.10
2023-03-20T01:22:28.222Z,15.11
2023-03-20T01:24:56.431Z,15.11
2023-03-20T01:27:26.520Z,15.13
2023-03-20T01:29:54.450Z,15.14
2023-03-20T01:32:22.629Z,15.15
2023-03-20T01:34:51.326Z,15.17
2023-03-20T01:37:26.009Z,15.18
2023-03-20T01:39:57.228Z,15.21
2023-03-20T01:42:25.869Z,15.22
2023-03-20T01:44:53.812Z,15.24
2023-03-20T01:47:24.872Z,15.24
2023-03-20T01:50:26.628Z,15.23
2023-03-20T01:53:03.093Z,15.24
2023-03-20T01:55:33.800Z,15.15
2023-03-20T01:58:06.926Z,15.10
2023-03-20T02:00:36.589Z,15.06
2023-03-20T02:03:08.841Z,15.03
2023-03-20T02:05:39.884Z,15.00
2023-03-20T02:08:17.700Z,14.95
2023-03-20T02:10:48.217Z,14.94
2023-03-20T02:13:17.656Z,14.90
2023-03-20T02:16:03.649Z,14.85
2023-03-20T02:18:33.087Z,14.77
2023-03-20T02:21:27.486Z,14.70
2023-03-20T02:24:25.208Z,14.67
2023-03-20T02:27:07.358Z,14.63
2023-03-20T02:30:08.869Z,14.53
2023-03-20T02:33:04.640Z,14.48
2023-03-20T02:36:00.928Z,14.42
2023-03-20T02:38:51.782Z,14.36
2023-03-20T02:41:27.205Z,14.29
2023-03-20T02:44:05.169Z,14.25
2023-03-20T02:46:42.175Z,14.21
2023-03-20T02:49:19.661Z,14.21
2023-03-20T02:51:53.566Z,14.23
2023-03-20T02:54:34.414Z,14.24
2023-03-20T02:57:08.719Z,14.27
2023-03-20T02:59:48.020Z,14.23
2023-03-20T03:02:21.404Z,14.21
2023-03-20T03:04:53.323Z,14.16
2023-03-20T03:07:26.953Z,14.18
2023-03-20T03:10:01.693Z,14.21
2023-03-20T03:12:37.938Z,14.25
2023-03-20T03:15:12.357Z,14.26
2023-03-20T03:17:46.229Z,14.34
2023-03-20T03:20:22.349Z,14.39
2023-03-20T03:22:55.132Z,14.44
2023-03-20T03:25:28.488Z,14.47
2023-03-20T03:28:06.895Z,14.48
2023-03-20T03:30:40.794Z,14.50
2023-03-20T03:33:17.403Z,14.46
2023-03-20T03:35:50.015Z,14.48
2023-03-20T03:38:31.318Z,14.51
2023-03-20T03:41:19.306Z,14.58
2023-03-20T03:43:56.938Z,14.59
2023-03-20T03:46:34.413Z,14.64
2023-03-20T03:49:06.801Z,14.65
2023-03-20T03:51:40.151Z,14.69
2023-03-20T03:54:13.886Z,14.72
2023-03-20T03:56:49.123Z,14.73
2023-03-20T03:59:24.864Z,14.75
2023-03-20T04:01:56.157Z,14.77
2023-03-20T04:04:27.433Z,14.76
2023-03-20T04:06:58.429Z,14.74
2023-03-20T04:09:27.659Z,14.78
2023-03-20T04:11:59.008Z,14.81
2023-03-20T04:14:29.488Z,14.81
2023-03-20T04:17:01.065Z,14.82
2023-03-20T04:19:33.933Z,14.85
2023-03-20T04:22:02.434Z,14.87
2023-03-20T04:24:32.025Z,14.88
2023-03-20T04:27:01.306Z,14.89
2023-03-20T04:29:29.628Z,14.88
2023-03-20T04:31:58.240Z,14.91
2023-03-20T04:34:27.162Z,14.90
2023-03-20T04:36:55.357Z,14.95
2023-03-20T04:39:26.818Z,14.96
2023-03-20T04:41:55.731Z,14.98
2023-03-20T04:44:25.806Z,14.93
2023-03-20T04:46:55.273Z,15.01
2023-03-20T04:49:25.147Z,14.97
2023-03-20T04:51:54.604Z,15.04
2023-03-20T04:54:27.868Z,15.03
2023-03-20T04:56:57.119Z,15.03
2023-03-20T04:59:28.645Z,15.08
2023-03-20T05:01:58.447Z,15.12
2023-03-20T05:04:28.045Z,15.14
2023-03-20T05:06:57.501Z,15.18
2023-03-20T05:09:28.227Z,15.20
2023-03-20T05:11:58.920Z,15.25
2023-03-20T05:14:32.521Z,15.28
2023-03-20T05:17:03.601Z,15.32
2023-03-20T05:19:33.182Z,15.34
2023-03-20T05:22:02.915Z,15.36
2023-03-20T05:24:32.341Z,15.37
2023-03-20T05:27:01.744Z,15.36
2023-03-20T05:29:34.176Z,15.36
2023-03-20T05:32:08.848Z,15.34
2023-03-20T05:34:40.577Z,15.13
2023-03-20T05:37:09.968Z,15.21
2023-03-20T05:39:40.293Z,15.28
2023-03-20T05:42:09.971Z,15.32
2023-03-20T05:44:41.142Z,15.36
2023-03-20T05:47:09.834Z,15.32
2023-03-20T05:49:38.320Z,15.31
2023-03-20T05:52:07.306Z,15.43
2023-03-20T05:54:36.623Z,15.50
2023-03-20T05:57:04.867Z,15.66
2023-03-20T05:59:33.506Z,15.68
2023-03-20T06:02:03.451Z,15.75
2023-03-20T06:04:32.175Z,15.74
2023-03-20T06:07:01.018Z,15.71
2023-03-20T06:09:29.632Z,15.70
2023-03-20T06:11:58.036Z,15.83
2023-03-20T06:14:26.508Z,15.81
2023-03-20T06:16:55.043Z,15.44
2023-03-20T06:19:25.987Z,15.91
2023-03-20T06:21:53.955Z,15.87
2023-03-20T06:24:22.351Z,15.70
2023-03-20T06:26:50.969Z,15.75
2023-03-20T06:29:19.936Z,15.86
2023-03-20T06:31:48.229Z,15.82
2023-03-20T06:34:17.329Z,15.84
2023-03-20T06:36:46.942Z,15.97
2023-03-20T06:39:16.239Z,16.06
2023-03-20T06:41:44.773Z,16.05
2023-03-20T06:44:12.888Z,16.02
2023-03-20T06:46:44.949Z,16.16
2023-03-20T06:49:13.619Z,16.20
2023-03-20T06:51:42.794Z,16.19
2023-03-20T06:54:12.725Z,16.26
2023-03-20T06:56:43.625Z,16.36
2023-03-20T06:59:12.163Z,16.35
2023-03-20T07:01:40.785Z,16.41
2023-03-20T07:04:09.348Z,16.44
2023-03-20T07:06:38.447Z,16.54
2023-03-20T07:09:07.826Z,16.58
2023-03-20T07:11:37.195Z,16.53
2023-03-20T07:14:05.712Z,16.65
2023-03-20T07:16:35.017Z,16.53
2023-03-20T07:19:03.803Z,16.67
2023-03-20T07:21:35.385Z,16.68
2023-03-20T07:24:03.363Z,16.77
2023-03-20T07:26:32.564Z,16.88
2023-03-20T07:29:02.402Z,16.92
2023-03-20T07:31:31.323Z,16.89
2023-03-20T07:34:01.283Z,16.97
2023-03-20T07:36:29.907Z,16.99
2023-03-20T07:38:57.826Z,17.05
2023-03-20T07:41:26.301Z,17.16
2023-03-20T07:43:54.823Z,17.27
2023-03-20T07:46:27.037Z,17.32
2023-03-20T07:48:56.661Z,17.43
2023-03-20T07:51:24.786Z,17.50
2023-03-20T07:53:54.984Z,17.57
2023-03-20T07:56:23.212Z,17.69
2023-03-20T07:58:52.005Z,17.81
2023-03-20T08:01:20.010Z,17.81
2023-03-20T08:03:49.633Z,17.95
2023-03-20T08:06:17.703Z,17.97
2023-03-20T08:08:46.052Z,18.05
2023-03-20T08:11:14.632Z,18.09
2023-03-20T08:13:42.597Z,17.98
2023-03-20T08:16:10.855Z,18.00
2023-03-20T08:18:39.213Z,18.01
2023-03-20T08:21:09.239Z,17.74
2023-03-20T08:23:37.128Z,17.67
2023-03-20T08:26:05.425Z,17.66
2023-03-20T08:28:46.531Z,17.71
2023-03-20T08:31:15.852Z,17.80
2023-03-20T08:33:43.795Z,17.84
2023-03-20T08:36:15.188Z,17.93
2023-03-20T08:38:43.935Z,18.14
2023-03-20T08:41:11.864Z,18.06
2023-03-20T08:43:39.877Z,18.04
2023-03-20T08:46:08.633Z,18.02
2023-03-20T08:48:37.121Z,17.95
2023-03-20T08:51:06.095Z,17.91
2023-03-20T08:53:35.624Z,17.78
2023-03-20T08:56:03.595Z,17.75
2023-03-20T08:58:31.607Z,17.76
2023-03-20T09:01:05.293Z,17.85
2023-03-20T09:03:33.333Z,17.88
2023-03-20T09:06:02.052Z,17.91
2023-03-20T09:08:32.108Z,17.97
2023-03-20T09:11:01.948Z,18.03
2023-03-20T09:13:30.276Z,18.11
2023-03-20T09:15:58.314Z,18.09
2023-03-20T09:18:26.493Z,18.15
2023-03-20T09:20:56.480Z,18.12
2023-03-20T09:23:24.925Z,18.16
2023-03-20T09:25:52.855Z,18.20
2023-03-20T09:28:22.440Z,18.20
2023-03-20T09:30:50.741Z,18.21
2023-03-20T09:33:19.181Z,18.20
2023-03-20T09:35:47.595Z,18.16
2023-03-20T09:38:15.680Z,18.16
2023-03-20T09:40:52.340Z,18.17
2023-03-20T09:43:35.413Z,17.95
2023-03-20T09:46:14.758Z,17.97
2023-03-20T09:48:51.950Z,17.90
2023-03-20T09:51:28.112Z,17.84
2023-03-20T09:54:01.165Z,17.87
2023-03-20T09:56:31.317Z,17.84
2023-03-20T09:59:07.794Z,17.85
2023-03-20T10:01:45.505Z,17.85
2023-03-20T10:04:14.448Z,17.83
2023-03-20T10:06:42.464Z,17.83
2023-03-20T10:09:18.772Z,17.82
2023-03-20T10:12:06.735Z,17.87
2023-03-20T10:14:46.132Z,17.80
2023-03-20T10:17:25.565Z,17.78
2023-03-20T10:19:58.975Z,17.76
2023-03-20T10:22:33.628Z,17.79
2023-03-20T10:25:08.712Z,17.75
2023-03-20T10:27:42.800Z,17.71
2023-03-20T10:30:27.564Z,17.70
2023-03-20T10:33:06.402Z,17.63
2023-03-20T10:35:40.707Z,17.65
2023-03-20T10:38:25.045Z,17.68
2023-03-20T10:40:55.020Z,17.66
2023-03-20T10:43:27.751Z,17.62
2023-03-20T10:46:02.196Z,17.72
2023-03-20T10:48:34.786Z,17.96
2023-03-20T10:51:04.437Z,18.17
2023-03-20T10:53:38.284Z,18.35
2023-03-20T10:56:09.774Z,18.38
2023-03-20T10:58:41.376Z,18.43
2023-03-20T11:01:10.917Z,18.45
2023-03-20T11:03:41.210Z,18.45
2023-03-20T11:06:18.436Z,18.47
2023-03-20T11:08:50.883Z,18.46
2023-03-20T11:11:24.279Z,18.42
2023-03-20T11:13:53.372Z,18.39
2023-03-20T11:16:24.881Z,18.39
2023-03-20T11:18:55.061Z,18.39
2023-03-20T11:21:25.623Z,18.36
2023-03-20T11:23:55.459Z,18.27
2023-03-20T11:26:35.607Z,18.26
2023-03-20T11:29:07.373Z,18.38
2023-03-20T11:31:38.849Z,18.54
2023-03-20T11:34:21.025Z,18.68
2023-03-20T11:37:09.211Z,18.76
2023-03-20T11:39:40.201Z,18.72
2023-03-20T11:42:23.887Z,18.57
2023-03-20T11:44:59.521Z,18.48
2023-03-20T11:47:33.765Z,18.43
2023-03-20T11:50:04.793Z,18.40
2023-03-20T11:52:35.639Z,18.36
2023-03-20T11:55:08.278Z,18.36
2023-03-20T11:57:38.308Z,18.36
2023-03-20T12:00:19.488Z,18.36
2023-03-20T12:02:49.384Z,18.34
2023-03-20T12:05:31.030Z,18.29
2023-03-20T12:08:02.769Z,18.30
2023-03-20T12:10:37.228Z,18.29
2023-03-20T12:13:12.888Z,18.29
2023-03-20T12:15:45.853Z,18.37
2023-03-20T12:18:21.176Z,18.43
2023-03-20T12:21:00.907Z,18.48
2023-03-20T12:23:35.547Z,18.53
2023-03-20T12:26:07.305Z,18.56
2023-03-20T12:28:41.728Z,18.57
2023-03-20T12:31:22.073Z,18.55
2023-03-20T12:33:55.811Z,18.58
2023-03-20T12:36:31.183Z,18.50
2023-03-20T12:38:59.571Z,18.53
2023-03-20T12:41:31.133Z,18.55
2023-03-20T12:44:17.333Z,18.58
2023-03-20T12:46:52.565Z,18.59
2023-03-20T12:49:33.021Z,18.66
2023-03-20T12:52:12.411Z,18.62
2023-03-20T12:55:02.514Z,18.72
2023-03-20T12:57:37.899Z,18.82
2023-03-20T13:00:19.212Z,18.94
2023-03-20T13:03:01.232Z,19.14
2023-03-20T13:05:39.882Z,19.33
2023-03-20T13:08:34.024Z,19.55
2023-03-20T13:11:11.386Z,19.70
2023-03-20T13:13:47.802Z,19.79
2023-03-20T13:16:24.630Z,19.94
2023-03-20T13:19:00.157Z,20.17
2023-03-20T13:21:36.735Z,20.44
2023-03-20T13:24:26.162Z,20.78
2023-03-20T13:27:04.026Z,20.85
2023-03-20T13:29:45.254Z,20.92
2023-03-20T13:32:23.788Z,20.94
2023-03-20T13:35:17.367Z,20.65
2023-03-20T13:37:50.549Z,20.78
2023-03-20T13:40:23.365Z,20.67
2023-03-20T13:42:56.072Z,20.75
2023-03-20T13:45:32.390Z,20.71
2023-03-20T13:48:09.015Z,20.71
2023-03-20T13:50:53.326Z,20.75
2023-03-20T13:53:31.256Z,20.97
2023-03-20T13:56:07.141Z,21.10
2023-03-20T13:58:52.796Z,21.18
2023-03-20T14:01:28.768Z,21.28
2023-03-20T14:03:57.809Z,21.42
2023-03-20T14:06:54.279Z,21.49
2023-03-20T14:09:30.496Z,21.68
2023-03-20T14:12:06.320Z,21.71
2023-03-20T14:14:42.799Z,22.10
2023-03-20T14:17:19.090Z,22.25
2023-03-20T14:19:48.573Z,22.28
2023-03-20T14:22:19.439Z,22.36
2023-03-20T14:24:54.990Z,22.25
2023-03-20T14:27:42.934Z,21.96
2023-03-20T14:30:41.901Z,21.95
2023-03-20T14:33:27.588Z,21.76
2023-03-20T14:36:22.162Z,21.39
2023-03-20T14:38:56.498Z,21.30
2023-03-20T14:41:32.450Z,21.09
2023-03-20T14:44:17.968Z,21.00
2023-03-20T14:46:55.703Z,21.01
2023-03-20T14:49:30.914Z,20.92
2023-03-20T14:52:10.541Z,20.76
2023-03-20T14:54:41.540Z,20.71
2023-03-20T14:57:19.936Z,20.55
2023-03-20T14:59:49.779Z,20.49
2023-03-20T15:02:27.372Z,20.42
2023-03-20T15:04:57.322Z,20.27
2023-03-20T15:07:29.278Z,20.17
2023-03-20T15:10:02.898Z,20.13
2023-03-20T15:12:37.207Z,20.09
2023-03-20T15:15:07.647Z,20.14
2023-03-20T15:17:38.097Z,20.05
2023-03-20T15:20:16.287Z,20.01
2023-03-20T15:22:49.129Z,19.85
2023-03-20T15:25:18.698Z,19.86
2023-03-20T15:27:49.546Z,19.83
2023-03-20T15:30:21.221Z,19.61
2023-03-20T15:32:55.918Z,19.58
2023-03-20T15:35:27.531Z,19.64
2023-03-20T15:37:59.373Z,19.65
2023-03-20T15:40:37.205Z,19.59
2023-03-20T15:43:17.960Z,19.49
2023-03-20T15:45:46.569Z,19.55
2023-03-20T15:48:17.596Z,19.57
2023-03-20T15:50:49.906Z,19.43
2023-03-20T15:53:20.636Z,19.38
2023-03-20T15:55:51.094Z,19.42
2023-03-20T15:58:21.420Z,19.43
2023-03-20T16:00:51.027Z,19.39
2023-03-20T16:03:23.190Z,19.45
2023-03-20T16:05:52.086Z,19.48
2023-03-20T16:08:25.615Z,19.50
2023-03-20T16:10:57.699Z,19.52
2023-03-20T16:13:30.804Z,19.46
2023-03-20T16:15:59.231Z,19.45
2023-03-20T16:18:39.555Z,19.49
2023-03-20T16:21:10.805Z,19.45
2023-03-20T16:23:42.018Z,19.45
2023-03-20T16:26:14.011Z,19.44
2023-03-20T16:28:47.351Z,19.44
2023-03-20T16:31:18.932Z,19.43
2023-03-20T16:33:48.945Z,19.42
2023-03-20T16:36:20.803Z,19.44
2023-03-20T16:38:57.786Z,19.45
2023-03-20T16:41:30.484Z,19.42
2023-03-20T16:44:01.337Z,19.39
2023-03-20T16:46:29.345Z,19.37
2023-03-20T16:48:59.057Z,19.38
2023-03-20T16:51:30.532Z,19.32
2023-03-20T16:54:01.387Z,19.27
2023-03-20T16:56:34.228Z,19.20
2023-03-20T16:59:09.523Z,19.10
2023-03-20T17:01:43.169Z,19.08
2023-03-20T17:04:18.847Z,19.00
2023-03-20T17:06:49.400Z,18.93
2023-03-20T17:09:21.254Z,18.89
2023-03-20T17:11:51.549Z,18.80
2023-03-20T17:14:20.925Z,18.74
2023-03-20T17:16:49.407Z,18.67
2023-03-20T17:19:20.530Z,18.58
2023-03-20T17:21:49.141Z,18.53
2023-03-20T17:24:18.469Z,18.47
2023-03-20T17:26:51.352Z,18.39
2023-03-20T17:29:20.925Z,18.30
2023-03-20T17:31:49.276Z,18.23
2023-03-20T17:34:17.143Z,18.18
2023-03-20T17:36:46.141Z,18.16
2023-03-20T17:39:19.928Z,18.12
2023-03-20T17:41:48.562Z,18.07
2023-03-20T17:44:17.064Z,18.04
2023-03-20T17:46:57.884Z,18.00
2023-03-20T17:49:28.278Z,17.89
2023-03-20T17:51:56.769Z,17.80
2023-03-20T17:54:24.958Z,17.71
2023-03-20T17:56:53.590Z,17.58
2023-03-20T17:59:21.515Z,17.51
2023-03-20T18:01:50.987Z,17.45
2023-03-20T18:04:19.863Z,17.39
2023-03-20T18:06:49.182Z,17.36
2023-03-20T18:09:17.862Z,17.26
2023-03-20T18:11:46.594Z,17.31
2023-03-20T18:14:18.223Z,17.33
2023-03-20T18:16:46.626Z,17.35
2023-03-20T18:19:24.225Z,17.35
2023-03-20T18:21:52.535Z,17.35
2023-03-20T18:24:20.666Z,17.31
2023-03-20T18:26:48.875Z,17.28
2023-03-20T18:29:17.223Z,17.28
2023-03-20T18:31:45.383Z,17.24
2023-03-20T18:34:13.540Z,17.18
2023-03-20T18:36:43.885Z,17.13
2023-03-20T18:39:17.484Z,17.06
2023-03-20T18:41:45.822Z,17.03
2023-03-20T18:44:14.186Z,17.00
2023-03-20T18:46:42.745Z,16.99
2023-03-20T18:49:15.610Z,16.96
2023-03-20T18:51:45.709Z,16.91
2023-03-20T18:54:14.540Z,16.87
2023-03-20T18:56:43.185Z,16.84
2023-03-20T18:59:13.728Z,16.82
2023-03-20T19:01:42.136Z,16.81
2023-03-20T19:04:10.329Z,16.79
2023-03-20T19:06:38.389Z,16.78
2023-03-20T19:09:10.876Z,16.73
2023-03-20T19:11:39.288Z,16.71
2023-03-20T19:14:07.614Z,16.71
2023-03-20T19:16:38.013Z,16.69
2023-03-20T19:19:09.043Z,16.66
2023-03-20T19:21:38.762Z,16.61
2023-03-20T19:24:09.605Z,16.58
2023-03-20T19:26:39.018Z,16.47
2023-03-20T19:29:09.187Z,16.32
2023-03-20T19:31:37.950Z,16.31
2023-03-20T19:34:06.777Z,16.30
2023-03-20T19:36:37.781Z,16.29
2023-03-20T19:39:09.407Z,16.28
2023-03-20T19:41:37.952Z,16.25
2023-03-20T19:44:07.098Z,16.23
2023-03-20T19:46:40.047Z,16.21
2023-03-20T19:49:18.557Z,16.18
2023-03-20T19:51:47.950Z,16.19
2023-03-20T19:54:18.071Z,16.19
2023-03-20T19:56:46.438Z,16.17
2023-03-20T19:59:16.840Z,16.16
2023-03-20T20:01:46.627Z,16.18
2023-03-20T20:04:16.163Z,16.22
2023-03-20T20:06:47.229Z,16.22
2023-03-20T20:09:18.140Z,16.19
2023-03-20T20:11:46.335Z,16.17
2023-03-20T20:14:15.410Z,16.15
2023-03-20T20:16:45.580Z,16.10
2023-03-20T20:19:14.597Z,16.04
2023-03-20T20:24:32.874Z,15.96
2023-03-20T20:27:15.792Z,15.94
2023-03-20T20:29:49.111Z,15.88
2023-03-20T20:32:18.207Z,15.85
2023-03-20T20:38:30.673Z,15.80
2023-03-20T20:40:28.245Z,15.78
2023-03-20T20:43:01.410Z,15.76
2023-03-20T20:45:31.942Z,15.73
2023-03-20T20:48:01.005Z,15.66
2023-03-20T20:50:31.864Z,15.63
2023-03-20T20:53:00.472Z,15.63
2023-03-20T20:55:29.989Z,15.63
2023-03-20T20:57:58.111Z,15.64
2023-03-20T21:00:47.356Z,15.65
2023-03-20T21:03:17.378Z,15.65
2023-03-20T21:05:45.642Z,15.65
2023-03-20T21:08:14.607Z,15.68
2023-03-20T21:10:45.375Z,15.69
2023-03-20T21:13:13.802Z,15.69
2023-03-20T21:15:42.091Z,15.67
2023-03-20T21:18:10.144Z,15.64
2023-03-20T21:20:38.770Z,15.63
2023-03-20T21:23:06.723Z,15.62
2023-03-20T21:25:45.562Z,15.64
2023-03-20T21:28:16.610Z,15.65
2023-03-20T21:31:09.065Z,15.63
2023-03-20T21:33:33.770Z,15.60
2023-03-20T21:36:02.401Z,15.58
2023-03-20T21:39:02.154Z,15.54
2023-03-20T21:41:19.009Z,15.49
2023-03-20T21:43:49.471Z,15.44
2023-03-20T21:46:56.689Z,15.43
2023-03-20T21:58:21.398Z,15.45
2023-03-20T22:03:28.901Z,15.39
2023-03-20T22:09:38.934Z,15.36
2023-03-20T22:12:14.510Z,15.37
2023-03-20T22:23:43.257Z,15.38
2023-03-20T22:26:25.397Z,15.38
2023-03-20T22:34:46.189Z,15.26
2023-03-20T22:37:40.788Z,15.29
2023-03-20T22:45:19.708Z,15.32
2023-03-20T22:47:48.174Z,15.33
2023-03-20T22:50:18.948Z,15.31
2023-03-20T22:52:49.493Z,15.31
2023-03-20T22:55:18.351Z,15.32
2023-03-20T22:58:03.772Z,15.34
2023-03-20T23:00:34.770Z,15.34
2023-03-20T23:03:17.162Z,15.33
2023-03-20T23:06:09.321Z,15.32
2023-03-20T23:08:48.031Z,15.30
2023-03-20T23:11:20.533Z,15.22
2023-03-20T23:13:48.607Z,15.25
2023-03-20T23:16:16.645Z,15.28
2023-03-20T23:18:45.121Z,15.20
2023-03-20T23:21:14.524Z,15.23
2023-03-20T23:23:42.524Z,15.16
2023-03-20T23:26:13.764Z,15.23
2023-03-20T23:28:43.976Z,15.27
2023-03-20T23:31:15.832Z,15.23
2023-03-20T23:33:48.343Z,15.22
2023-03-20T23:36:34.559Z,15.08
2023-03-20T23:39:03.352Z,15.16
2023-03-20T23:42:01.709Z,15.09
2023-03-20T23:44:19.877Z,15.05
2023-03-20T23:46:48.573Z,15.01
2023-03-20T23:49:17.388Z,14.95
2023-03-20T23:51:47.187Z,14.85
2023-03-20T23:54:15.957Z,14.91
2023-03-20T23:56:44.127Z,14.78
2023-03-20T23:59:20.976Z,14.83
